createdAt,value
2022-11-08T00:03:23.254Z,9.01
2022-11-08T00:09:02.442Z,9.03
2022-11-08T00:14:22.933Z,9.08
2022-11-08T00:19:44.262Z,9.09
2022-11-08T00:25:05.362Z,9.15
2022-11-08T00:30:25.912Z,9.20
2022-11-08T00:35:46.820Z,9.13
2022-11-08T00:41:07.576Z,9.09
2022-11-08T00:46:28.534Z,9.10
2022-11-08T00:51:49.420Z,9.05
2022-11-08T00:57:10.363Z,8.97
2022-11-08T01:02:31.259Z,8.95
2022-11-08T01:07:52.113Z,8.94
2022-11-08T01:13:13.133Z,8.89
2022-11-08T01:18:33.792Z,8.78
2022-11-08T01:23:54.936Z,8.83
2022-11-08T01:29:15.527Z,8.79
2022-11-08T01:34:36.342Z,8.78
2022-11-08T01:39:57.089Z,8.68
2022-11-08T01:45:36.785Z,8.71
2022-11-08T01:50:59.014Z,8.72
2022-11-08T01:56:21.007Z,8.59
2022-11-08T02:01:42.167Z,8.67
2022-11-08T02:07:04.239Z,8.78
2022-11-08T02:12:25.807Z,8.72
2022-11-08T02:17:46.337Z,8.74
2022-11-08T02:23:06.997Z,8.51
2022-11-08T02:28:27.671Z,8.37
2022-11-08T02:33:49.021Z,8.23
2022-11-08T02:39:09.723Z,8.32
2022-11-08T02:44:30.650Z,8.28
2022-11-08T02:49:51.173Z,8.45
2022-11-08T02:55:12.177Z,8.46
2022-11-08T03:00:32.805Z,8.33
2022-11-08T03:05:53.424Z,8.31
2022-11-08T03:11:14.234Z,8.16
2022-11-08T03:16:35.073Z,8.18
2022-11-08T03:21:55.747Z,8.20
2022-11-08T03:27:19.096Z,7.92
2022-11-08T03:32:39.767Z,7.98
2022-11-08T03:38:00.560Z,7.86
2022-11-08T03:43:21.367Z,7.95
2022-11-08T03:48:42.280Z,8.00
2022-11-08T03:54:02.809Z,8.08
2022-11-08T03:59:23.576Z,8.03
2022-11-08T04:04:44.130Z,7.78
2022-11-08T04:10:05.782Z,7.75
2022-11-08T04:15:27.427Z,7.92
2022-11-08T04:21:06.968Z,7.98
2022-11-08T04:26:27.560Z,7.80
2022-11-08T04:31:48.336Z,7.72
2022-11-08T04:37:09.201Z,7.83
2022-11-08T04:42:30.027Z,7.86
2022-11-08T04:47:51.045Z,7.60
2022-11-08T04:53:11.878Z,7.60
2022-11-08T04:58:34.713Z,7.81
2022-11-08T05:03:55.467Z,7.94
2022-11-08T05:09:16.022Z,7.62
2022-11-08T05:14:36.686Z,7.63
2022-11-08T05:20:16.118Z,7.44
2022-11-08T05:25:40.437Z,7.60
2022-11-08T05:31:01.043Z,7.46
2022-11-08T05:36:21.761Z,7.16
2022-11-08T05:41:42.612Z,7.28
2022-11-08T05:47:03.490Z,7.29
2022-11-08T05:52:24.072Z,7.22
2022-11-08T05:57:44.785Z,7.04
2022-11-08T06:03:06.566Z,7.19
2022-11-08T06:08:27.112Z,7.26
2022-11-08T06:13:47.624Z,7.24
2022-11-08T06:19:08.099Z,7.38
2022-11-08T06:24:29.178Z,7.33
2022-11-08T06:29:50.035Z,7.28
2022-11-08T06:35:11.034Z,7.21
2022-11-08T06:40:34.825Z,7.10
2022-11-08T06:45:55.563Z,7.11
2022-11-08T06:51:16.931Z,7.08
2022-11-08T06:56:37.708Z,7.00
2022-11-08T07:01:59.062Z,7.10
2022-11-08T07:07:19.869Z,7.04
2022-11-08T07:12:40.845Z,7.01
2022-11-08T07:18:12.333Z,7.01
2022-11-08T07:23:33.155Z,7.00
2022-11-08T07:28:53.770Z,7.02
2022-11-08T07:34:14.728Z,7.22
2022-11-08T07:39:35.202Z,7.48
2022-11-08T07:44:56.032Z,7.56
2022-11-08T07:50:18.082Z,7.73
2022-11-08T07:55:39.732Z,7.88
2022-11-08T08:01:02.345Z,7.94
2022-11-08T08:06:24.514Z,8.07
2022-11-08T08:11:45.376Z,8.19
2022-11-08T08:17:06.034Z,8.34
2022-11-08T08:22:26.972Z,8.39
2022-11-08T08:27:52.016Z,8.48
2022-11-08T08:33:29.972Z,8.64
2022-11-08T08:38:50.863Z,8.84
2022-11-08T08:44:11.485Z,8.98
2022-11-08T08:49:32.441Z,9.11
2022-11-08T08:54:53.252Z,9.32
2022-11-08T09:06:00.390Z,9.71
2022-11-08T09:11:21.146Z,9.88
2022-11-08T09:16:42.199Z,9.88
2022-11-08T09:22:02.980Z,10.11
2022-11-08T09:27:23.696Z,10.24
2022-11-08T09:33:00.444Z,10.35
2022-11-08T09:38:22.366Z,10.51
2022-11-08T09:43:56.276Z,10.73
2022-11-08T09:49:20.369Z,11.01
2022-11-08T09:54:46.940Z,11.27
2022-11-08T10:00:11.632Z,11.44
2022-11-08T10:05:38.825Z,11.63
2022-11-08T10:10:59.522Z,11.80
2022-11-08T10:16:30.961Z,11.99
2022-11-08T10:21:54.574Z,12.15
2022-11-08T10:27:21.299Z,12.33
2022-11-08T10:32:42.520Z,12.38
2022-11-08T10:38:03.699Z,12.46
2022-11-08T10:43:40.867Z,12.62
2022-11-08T10:49:20.240Z,12.72
2022-11-08T10:54:48.915Z,12.82
2022-11-08T11:00:18.715Z,12.93
2022-11-08T11:05:44.236Z,12.97
2022-11-08T11:11:24.037Z,13.07
2022-11-08T11:16:56.467Z,13.19
2022-11-08T11:22:25.165Z,13.27
2022-11-08T11:27:49.306Z,13.44
2022-11-08T11:33:24.182Z,13.50
2022-11-08T11:39:05.022Z,13.60
2022-11-08T11:44:28.674Z,13.70
2022-11-08T11:49:50.816Z,13.86
2022-11-08T11:55:15.490Z,13.95
2022-11-08T12:00:39.300Z,13.98
2022-11-08T12:06:10.123Z,13.99
2022-11-08T12:11:36.264Z,14.06
2022-11-08T12:17:06.042Z,14.14
2022-11-08T12:22:33.183Z,14.11
2022-11-08T12:28:00.411Z,14.15
2022-11-08T12:33:21.295Z,14.24
2022-11-08T12:38:51.090Z,14.36
2022-11-08T12:44:27.113Z,14.30
2022-11-08T12:49:50.973Z,14.19
2022-11-08T12:55:32.047Z,14.18
2022-11-08T13:00:57.033Z,14.12
2022-11-08T13:06:24.373Z,14.11
2022-11-08T13:11:49.732Z,14.09
2022-11-08T13:17:18.490Z,14.05
2022-11-08T13:22:40.351Z,13.99
2022-11-08T13:28:01.077Z,14.02
2022-11-08T13:33:30.619Z,14.07
2022-11-08T13:39:04.393Z,14.03
2022-11-08T13:45:00.825Z,14.00
2022-11-08T13:50:27.777Z,14.00
2022-11-08T13:56:06.667Z,13.98
2022-11-08T14:01:27.531Z,13.93
2022-11-08T14:07:07.378Z,13.92
2022-11-08T14:12:47.677Z,13.92
2022-11-08T14:18:18.588Z,13.90
2022-11-08T14:23:40.621Z,13.90
2022-11-08T14:29:01.158Z,13.92
2022-11-08T14:34:33.385Z,13.83
2022-11-08T14:39:54.137Z,13.75
2022-11-08T14:45:15.552Z,13.68
2022-11-08T14:50:36.115Z,13.62
2022-11-08T14:56:17.209Z,13.54
2022-11-08T15:01:38.035Z,13.40
2022-11-08T15:06:59.066Z,13.29
2022-11-08T15:12:21.663Z,13.24
2022-11-08T15:17:42.384Z,13.15
2022-11-08T15:23:03.178Z,12.99
2022-11-08T15:28:26.003Z,12.87
2022-11-08T15:33:46.563Z,12.72
2022-11-08T15:39:07.367Z,12.76
2022-11-08T15:44:28.253Z,12.85
2022-11-08T15:49:49.377Z,12.91
2022-11-08T15:55:13.974Z,12.78
2022-11-08T16:00:38.426Z,12.63
2022-11-08T16:05:59.234Z,12.50
2022-11-08T16:11:20.960Z,12.27
2022-11-08T16:16:41.702Z,12.64
2022-11-08T16:22:07.313Z,12.52
2022-11-08T16:27:27.885Z,12.31
2022-11-08T16:32:49.043Z,12.24
2022-11-08T16:38:10.160Z,12.30
2022-11-08T16:43:31.526Z,12.31
2022-11-08T16:48:56.585Z,12.27
2022-11-08T16:54:19.645Z,12.11
2022-11-08T16:59:40.573Z,11.74
2022-11-08T17:05:01.323Z,11.60
2022-11-08T17:10:24.599Z,11.40
2022-11-08T17:15:45.972Z,11.45
2022-11-08T17:21:30.322Z,11.53
2022-11-08T17:26:47.741Z,11.49
2022-11-08T17:32:08.303Z,11.39
2022-11-08T17:37:29.187Z,11.26
2022-11-08T17:42:50.099Z,11.21
2022-11-08T17:48:10.553Z,11.10
2022-11-08T17:53:32.985Z,10.89
2022-11-08T17:58:53.765Z,10.55
2022-11-08T18:04:14.513Z,10.20
2022-11-08T18:09:35.470Z,10.04
2022-11-08T18:14:56.341Z,9.95
2022-11-08T18:20:17.096Z,9.85
2022-11-08T18:25:39.361Z,9.72
2022-11-08T18:31:04.174Z,9.66
2022-11-08T18:36:25.879Z,9.59
2022-11-08T18:41:46.701Z,9.51
2022-11-08T18:47:07.456Z,9.34
2022-11-08T18:52:28.800Z,9.19
2022-11-08T18:57:49.632Z,9.06
2022-11-08T19:03:10.364Z,8.98
2022-11-08T19:08:32.781Z,8.90
2022-11-08T19:13:53.734Z,8.85
2022-11-08T19:19:14.327Z,8.76
2022-11-08T19:24:35.296Z,8.67
2022-11-08T19:29:55.919Z,8.57
2022-11-08T19:35:16.801Z,8.49
2022-11-08T19:40:40.636Z,8.43
2022-11-08T19:46:04.517Z,8.32
2022-11-08T19:51:27.178Z,8.21
2022-11-08T19:57:04.321Z,8.13
2022-11-08T20:02:26.296Z,8.04
2022-11-08T20:07:47.153Z,7.96
2022-11-08T20:13:08.263Z,7.96
2022-11-08T20:18:29.068Z,7.90
2022-11-08T20:23:52.115Z,7.85
2022-11-08T20:29:14.771Z,7.78
2022-11-08T20:34:35.445Z,7.73
2022-11-08T20:39:56.352Z,7.72
2022-11-08T20:45:17.144Z,7.72
2022-11-08T20:50:39.391Z,7.68
2022-11-08T20:56:01.075Z,7.74
2022-11-08T21:01:23.231Z,7.65
2022-11-08T21:06:44.318Z,7.47
2022-11-08T21:12:05.268Z,7.37
2022-11-08T21:17:26.076Z,7.36
2022-11-08T21:22:47.026Z,7.32
2022-11-08T21:28:09.366Z,7.24
2022-11-08T21:33:30.146Z,7.14
2022-11-08T21:38:51.097Z,7.14
2022-11-08T21:44:11.912Z,7.17
2022-11-08T21:49:32.821Z,7.14
2022-11-08T21:54:53.816Z,6.96
2022-11-08T22:00:14.946Z,6.82
2022-11-08T22:05:35.664Z,6.74
2022-11-08T22:10:56.442Z,6.62
2022-11-08T22:16:17.325Z,6.63
2022-11-08T22:21:38.292Z,6.62
2022-11-08T22:26:59.453Z,6.61
2022-11-08T22:32:20.288Z,6.66
2022-11-08T22:37:41.165Z,6.61
2022-11-08T22:43:02.063Z,6.77
2022-11-08T22:48:22.999Z,6.74
2022-11-08T22:53:43.569Z,6.73
2022-11-08T22:59:04.382Z,6.73
2022-11-08T23:04:25.327Z,6.63
2022-11-08T23:09:45.974Z,6.59
2022-11-08T23:15:25.354Z,6.58
2022-11-08T23:21:04.811Z,6.46
2022-11-08T23:26:44.026Z,6.39
2022-11-08T23:32:04.532Z,6.51
2022-11-08T23:37:25.392Z,6.59
2022-11-08T23:43:04.479Z,6.50
2022-11-08T23:48:26.864Z,6.39
2022-11-08T23:53:47.416Z,6.23
2022-11-08T23:59:08.379Z,6.08
